createdAt,value
2023-04-16T00:02:00.004Z,9.77
2023-04-16T00:04:26.749Z,9.89
2023-04-16T00:06:54.815Z,9.78
2023-04-16T00:09:21.709Z,9.91
2023-04-16T00:11:48.408Z,9.75
2023-04-16T00:14:15.032Z,9.67
2023-04-16T00:16:41.645Z,9.69
2023-04-16T00:19:08.478Z,9.71
2023-04-16T00:21:35.487Z,9.89
2023-04-16T00:24:02.112Z,9.99
2023-04-16T00:26:28.754Z,9.87
2023-04-16T00:28:55.641Z,9.98
2023-04-16T00:31:30.456Z,9.81
2023-04-16T00:33:57.918Z,9.76
2023-04-16T00:36:25.985Z,9.83
2023-04-16T00:38:53.218Z,9.94
2023-04-16T00:41:20.301Z,9.92
2023-04-16T00:43:46.943Z,9.71
2023-04-16T00:46:13.792Z,9.68
2023-04-16T00:48:41.300Z,9.74
2023-04-16T00:51:08.849Z,9.75
2023-04-16T00:53:36.249Z,9.65
2023-04-16T00:56:04.324Z,9.75
2023-04-16T00:58:31.749Z,9.67
2023-04-16T01:00:58.859Z,9.64
2023-04-16T01:03:37.346Z,9.57
2023-04-16T01:06:04.577Z,9.51
2023-04-16T01:08:31.469Z,9.51
2023-04-16T01:10:58.344Z,9.53
2023-04-16T01:13:25.480Z,9.55
2023-04-16T01:15:52.476Z,9.62
2023-04-16T01:18:21.231Z,9.66
2023-04-16T01:20:48.812Z,9.72
2023-04-16T01:23:15.973Z,9.50
2023-04-16T01:25:43.550Z,9.51
2023-04-16T01:28:10.840Z,9.59
2023-04-16T01:30:37.528Z,9.46
2023-04-16T01:33:30.099Z,9.51
2023-04-16T01:35:56.887Z,9.64
2023-04-16T01:38:23.949Z,9.66
2023-04-16T01:40:50.768Z,9.72
2023-04-16T01:43:17.468Z,9.69
2023-04-16T01:45:44.159Z,9.56
2023-04-16T01:48:12.213Z,9.64
2023-04-16T01:50:38.905Z,9.69
2023-04-16T01:53:05.696Z,9.65
2023-04-16T01:55:35.184Z,9.48
2023-04-16T01:58:01.924Z,9.44
2023-04-16T02:00:33.582Z,9.47
2023-04-16T02:03:00.589Z,9.63
2023-04-16T02:05:28.538Z,9.64
2023-04-16T02:07:55.284Z,9.73
2023-04-16T02:10:22.146Z,9.50
2023-04-16T02:12:48.966Z,9.57
2023-04-16T02:15:16.324Z,9.64
2023-04-16T02:17:43.273Z,9.71
2023-04-16T02:20:11.206Z,9.65
2023-04-16T02:22:48.083Z,9.53
2023-04-16T02:25:18.236Z,9.69
2023-04-16T02:27:44.944Z,9.57
2023-04-16T02:30:24.307Z,9.60
2023-04-16T02:32:52.444Z,9.62
2023-04-16T02:35:20.099Z,9.63
2023-04-16T02:37:47.029Z,9.51
2023-04-16T02:40:13.882Z,9.39
2023-04-16T02:42:40.702Z,9.49
2023-04-16T02:45:08.743Z,9.66
2023-04-16T02:47:35.585Z,9.48
2023-04-16T02:50:03.771Z,9.35
2023-04-16T02:52:32.201Z,9.37
2023-04-16T02:54:59.154Z,9.40
2023-04-16T02:57:26.004Z,9.46
2023-04-16T02:59:52.708Z,9.33
2023-04-16T03:02:19.471Z,9.24
2023-04-16T03:04:46.577Z,9.31
2023-04-16T03:07:13.668Z,9.50
2023-04-16T03:09:40.336Z,9.62
2023-04-16T03:12:07.073Z,9.57
2023-04-16T03:14:33.729Z,9.59
2023-04-16T03:17:00.517Z,9.42
2023-04-16T03:19:27.388Z,9.38
2023-04-16T03:21:54.037Z,9.59
2023-04-16T03:24:20.680Z,9.46
2023-04-16T03:26:49.266Z,9.62
2023-04-16T03:29:16.061Z,9.25
2023-04-16T03:31:43.259Z,9.35
2023-04-16T03:34:10.694Z,9.42
2023-04-16T03:36:39.217Z,9.22
2023-04-16T03:39:05.982Z,9.38
2023-04-16T03:41:33.162Z,9.58
2023-04-16T03:44:00.467Z,9.43
2023-04-16T03:46:27.197Z,9.31
2023-04-16T03:48:54.289Z,9.40
2023-04-16T03:51:21.232Z,9.29
2023-04-16T03:53:47.948Z,9.41
2023-04-16T03:56:14.945Z,9.39
2023-04-16T03:58:41.636Z,9.32
2023-04-16T04:01:08.723Z,9.42
2023-04-16T04:03:37.536Z,9.17
2023-04-16T04:06:10.592Z,9.26
2023-04-16T04:08:37.203Z,9.36
2023-04-16T04:11:04.918Z,9.30
2023-04-16T04:13:33.425Z,9.44
2023-04-16T04:16:00.248Z,9.47
2023-04-16T04:18:28.069Z,9.52
2023-04-16T04:20:54.774Z,9.41
2023-04-16T04:23:25.670Z,9.50
2023-04-16T04:25:52.294Z,9.43
2023-04-16T04:28:19.042Z,9.34
2023-04-16T04:30:45.725Z,9.32
2023-04-16T04:33:12.881Z,9.40
2023-04-16T04:35:39.568Z,9.27
2023-04-16T04:38:06.565Z,9.32
2023-04-16T04:40:34.024Z,9.40
2023-04-16T04:43:00.985Z,9.40
2023-04-16T04:45:29.628Z,9.38
2023-04-16T04:47:59.289Z,9.44
2023-04-16T04:50:26.257Z,9.40
2023-04-16T04:52:52.889Z,9.34
2023-04-16T04:55:19.874Z,9.27
2023-04-16T04:57:46.555Z,9.38
2023-04-16T05:00:13.638Z,9.33
2023-04-16T05:02:51.091Z,9.44
2023-04-16T05:05:18.052Z,9.47
2023-04-16T05:07:44.759Z,9.40
2023-04-16T05:10:11.491Z,9.46
2023-04-16T05:12:38.229Z,9.58
2023-04-16T05:15:05.203Z,9.51
2023-04-16T05:17:32.279Z,9.48
2023-04-16T05:20:00.448Z,9.53
2023-04-16T05:22:27.081Z,9.53
2023-04-16T05:24:53.690Z,9.53
2023-04-16T05:27:20.424Z,9.58
2023-04-16T05:29:47.072Z,9.56
2023-04-16T05:32:13.763Z,9.52
2023-04-16T05:34:40.571Z,9.37
2023-04-16T05:37:07.270Z,9.45
2023-04-16T05:39:33.862Z,9.47
2023-04-16T05:42:00.577Z,9.53
2023-04-16T05:44:27.232Z,9.60
2023-04-16T05:46:54.082Z,9.69
2023-04-16T05:49:22.105Z,9.68
2023-04-16T05:51:50.735Z,9.81
2023-04-16T05:54:18.106Z,9.88
2023-04-16T05:56:44.934Z,9.88
2023-04-16T05:59:11.814Z,9.96
2023-04-16T06:01:39.070Z,9.94
2023-04-16T06:04:05.847Z,9.77
2023-04-16T06:06:32.575Z,9.95
2023-04-16T06:08:59.339Z,10.07
2023-04-16T06:11:27.504Z,10.03
2023-04-16T06:13:54.202Z,10.12
2023-04-16T06:16:20.914Z,10.06
2023-04-16T06:18:47.615Z,10.08
2023-04-16T06:21:14.297Z,9.86
2023-04-16T06:23:41.214Z,9.94
2023-04-16T06:26:07.947Z,10.04
2023-04-16T06:28:34.568Z,10.03
2023-04-16T06:31:01.522Z,9.77
2023-04-16T06:33:28.334Z,9.67
2023-04-16T06:35:55.253Z,9.65
2023-04-16T06:38:22.360Z,9.61
2023-04-16T06:40:49.873Z,9.61
2023-04-16T06:43:17.881Z,9.58
2023-04-16T06:45:45.271Z,9.74
2023-04-16T06:48:12.134Z,9.66
2023-04-16T06:50:38.961Z,9.67
2023-04-16T06:53:05.735Z,9.67
2023-04-16T06:55:32.604Z,9.72
2023-04-16T06:57:59.264Z,9.68
2023-04-16T07:00:26.179Z,9.57
2023-04-16T07:02:53.106Z,9.83
2023-04-16T07:05:20.444Z,9.74
2023-04-16T07:07:47.170Z,9.64
2023-04-16T07:10:13.952Z,9.82
2023-04-16T07:12:40.709Z,9.86
2023-04-16T07:15:08.034Z,9.83
2023-04-16T07:17:34.687Z,9.69
2023-04-16T07:20:01.366Z,9.67
2023-04-16T07:22:30.582Z,9.78
2023-04-16T07:24:57.251Z,9.91
2023-04-16T07:27:23.919Z,9.93
2023-04-16T07:29:50.853Z,9.85
2023-04-16T07:32:17.885Z,9.87
2023-04-16T07:34:44.622Z,9.82
2023-04-16T07:37:11.334Z,9.92
2023-04-16T07:39:37.995Z,10.04
2023-04-16T07:42:04.683Z,9.92
2023-04-16T07:44:31.601Z,10.10
2023-04-16T07:46:58.258Z,10.22
2023-04-16T07:49:24.998Z,10.10
2023-04-16T07:51:51.792Z,10.05
2023-04-16T07:54:18.475Z,10.02
2023-04-16T07:56:45.328Z,9.95
2023-04-16T07:59:21.969Z,9.97
2023-04-16T08:01:50.271Z,10.12
2023-04-16T08:04:22.940Z,10.14
2023-04-16T08:06:53.685Z,10.14
2023-04-16T08:09:21.621Z,10.27
2023-04-16T08:11:49.713Z,10.37
2023-04-16T08:14:17.309Z,10.44
2023-04-16T08:16:44.218Z,10.28
2023-04-16T08:19:11.028Z,10.23
2023-04-16T08:21:37.950Z,10.35
2023-04-16T08:24:04.881Z,10.49
2023-04-16T08:26:31.513Z,10.39
2023-04-16T08:28:58.133Z,10.51
2023-04-16T08:31:24.837Z,10.54
2023-04-16T08:33:51.574Z,10.26
2023-04-16T08:36:18.316Z,10.21
2023-04-16T08:38:45.011Z,10.24
2023-04-16T08:41:13.347Z,10.32
2023-04-16T08:43:45.314Z,10.30
2023-04-16T08:46:12.513Z,10.53
2023-04-16T08:48:43.198Z,10.16
2023-04-16T08:51:11.001Z,10.19
2023-04-16T08:54:12.058Z,10.25
2023-04-16T08:56:42.995Z,10.31
2023-04-16T08:59:10.731Z,10.13
2023-04-16T09:01:39.618Z,9.99
2023-04-16T09:04:07.660Z,10.07
2023-04-16T09:06:36.270Z,10.17
2023-04-16T09:09:04.884Z,10.13
2023-04-16T09:11:32.235Z,10.06
2023-04-16T09:14:00.732Z,9.90
2023-04-16T09:16:33.325Z,9.83
2023-04-16T09:19:00.275Z,9.95
2023-04-16T09:21:27.980Z,10.11
2023-04-16T09:23:55.213Z,10.03
2023-04-16T09:26:22.569Z,10.04
2023-04-16T09:28:51.196Z,9.77
2023-04-16T09:31:19.506Z,9.99
2023-04-16T09:34:03.184Z,10.08
2023-04-16T09:36:31.454Z,9.83
2023-04-16T09:38:59.453Z,9.82
2023-04-16T09:41:29.059Z,9.89
2023-04-16T09:43:57.550Z,9.74
2023-04-16T09:46:29.301Z,9.79
2023-04-16T09:48:56.237Z,9.82
2023-04-16T09:51:22.926Z,9.83
2023-04-16T09:53:53.732Z,9.88
2023-04-16T09:56:24.768Z,9.89
2023-04-16T09:58:56.020Z,9.73
2023-04-16T10:01:23.780Z,9.94
2023-04-16T10:03:51.370Z,9.94
2023-04-16T10:06:20.041Z,9.91
2023-04-16T10:08:49.731Z,9.94
2023-04-16T10:11:18.166Z,10.00
2023-04-16T10:13:45.433Z,10.05
2023-04-16T10:16:12.857Z,9.88
2023-04-16T10:18:44.749Z,9.88
2023-04-16T10:21:12.802Z,10.02
2023-04-16T10:23:40.573Z,10.00
2023-04-16T10:26:07.785Z,10.18
2023-04-16T10:28:37.902Z,10.21
2023-04-16T10:31:07.629Z,10.04
2023-04-16T10:33:37.138Z,10.20
2023-04-16T10:36:15.781Z,10.24
2023-04-16T10:38:47.622Z,10.33
2023-04-16T10:41:14.567Z,10.16
2023-04-16T10:43:44.449Z,10.28
2023-04-16T10:46:33.013Z,10.27
2023-04-16T10:49:13.664Z,10.27
2023-04-16T10:51:40.911Z,10.28
2023-04-16T10:54:12.568Z,10.32
2023-04-16T10:56:39.287Z,10.29
2023-04-16T10:59:07.451Z,10.58
2023-04-16T11:01:37.008Z,10.55
2023-04-16T11:04:19.455Z,10.35
2023-04-16T11:07:11.497Z,10.31
2023-04-16T11:09:47.400Z,10.43
2023-04-16T11:12:16.855Z,10.44
2023-04-16T11:14:46.816Z,10.45
2023-04-16T11:17:13.801Z,10.44
2023-04-16T11:19:42.631Z,10.38
2023-04-16T11:22:13.488Z,10.49
2023-04-16T11:24:40.960Z,10.52
2023-04-16T11:27:08.518Z,10.59
2023-04-16T11:29:35.381Z,10.60
2023-04-16T11:32:02.365Z,10.68
2023-04-16T11:34:29.175Z,10.57
2023-04-16T11:36:56.233Z,10.45
2023-04-16T11:39:23.197Z,10.53
2023-04-16T11:41:52.316Z,10.41
2023-04-16T11:44:23.569Z,10.56
2023-04-16T11:46:51.962Z,10.63
2023-04-16T11:49:30.977Z,10.61
2023-04-16T11:51:58.577Z,10.57
2023-04-16T11:54:25.613Z,10.57
2023-04-16T11:56:53.278Z,10.73
2023-04-16T11:59:23.633Z,10.83
2023-04-16T12:01:52.873Z,10.81
2023-04-16T12:04:21.499Z,10.90
2023-04-16T12:07:08.447Z,10.85
2023-04-16T12:09:40.012Z,10.69
2023-04-16T12:12:25.389Z,10.88
2023-04-16T12:14:54.386Z,10.93
2023-04-16T12:17:21.241Z,10.91
2023-04-16T12:19:58.477Z,11.11
2023-04-16T12:22:37.196Z,10.98
2023-04-16T12:25:11.703Z,10.84
2023-04-16T12:27:42.113Z,10.94
2023-04-16T12:30:09.308Z,10.94
2023-04-16T12:32:36.305Z,11.02
2023-04-16T12:35:03.051Z,11.16
2023-04-16T12:37:30.604Z,10.90
2023-04-16T12:39:57.386Z,10.99
2023-04-16T12:42:24.194Z,11.00
2023-04-16T12:44:51.430Z,10.99
2023-04-16T12:47:18.211Z,11.01
2023-04-16T12:49:45.651Z,11.08
2023-04-16T12:52:12.350Z,10.92
2023-04-16T12:54:39.074Z,10.94
2023-04-16T12:57:05.825Z,10.89
2023-04-16T12:59:32.448Z,11.00
2023-04-16T13:02:01.406Z,10.88
2023-04-16T13:04:28.332Z,10.94
2023-04-16T13:06:55.170Z,10.97
2023-04-16T13:09:22.008Z,11.16
2023-04-16T13:11:48.638Z,11.02
2023-04-16T13:14:15.297Z,11.03
2023-04-16T13:16:41.971Z,11.10
2023-04-16T13:19:08.967Z,10.96
2023-04-16T13:21:35.900Z,11.14
2023-04-16T13:24:02.613Z,11.08
2023-04-16T13:26:29.327Z,10.89
2023-04-16T13:28:56.068Z,10.98
2023-04-16T13:31:22.881Z,11.00
2023-04-16T13:33:50.599Z,11.05
2023-04-16T13:36:17.336Z,11.00
2023-04-16T13:38:43.975Z,11.12
2023-04-16T13:41:10.675Z,11.08
2023-04-16T13:43:37.331Z,11.14
2023-04-16T13:46:03.987Z,11.12
2023-04-16T13:48:30.789Z,10.99
2023-04-16T13:50:57.460Z,11.14
2023-04-16T13:53:24.158Z,11.05
2023-04-16T13:55:50.904Z,11.09
2023-04-16T13:58:17.621Z,11.06
2023-04-16T14:00:44.403Z,11.06
2023-04-16T14:03:11.115Z,11.05
2023-04-16T14:05:37.928Z,10.93
2023-04-16T14:08:04.662Z,10.92
2023-04-16T14:10:32.124Z,10.91
2023-04-16T14:12:58.891Z,11.05
2023-04-16T14:15:27.402Z,11.05
2023-04-16T14:17:54.188Z,11.09
2023-04-16T14:20:21.205Z,11.21
2023-04-16T14:22:47.999Z,11.22
2023-04-16T14:25:15.010Z,11.22
2023-04-16T14:27:41.816Z,11.08
2023-04-16T14:30:08.959Z,11.13
2023-04-16T14:32:36.333Z,11.19
2023-04-16T14:35:06.505Z,11.14
2023-04-16T14:37:35.841Z,11.19
2023-04-16T14:40:07.874Z,11.07
2023-04-16T14:42:36.567Z,11.10
2023-04-16T14:45:06.395Z,11.10
2023-04-16T14:47:34.375Z,11.11
2023-04-16T14:50:02.298Z,11.14
2023-04-16T14:52:32.569Z,11.27
2023-04-16T14:54:59.680Z,11.13
2023-04-16T14:57:26.772Z,11.21
2023-04-16T14:59:53.472Z,11.12
2023-04-16T15:02:20.421Z,11.19
2023-04-16T15:04:47.249Z,11.20
2023-04-16T15:07:13.949Z,11.12
2023-04-16T15:09:40.792Z,11.19
2023-04-16T15:12:07.512Z,11.22
2023-04-16T15:14:34.300Z,11.11
2023-04-16T15:17:01.208Z,11.23
2023-04-16T15:19:27.848Z,11.20
2023-04-16T15:21:55.805Z,11.23
2023-04-16T15:24:22.449Z,11.21
2023-04-16T15:26:49.063Z,11.36
2023-04-16T15:29:15.919Z,11.30
2023-04-16T15:31:42.683Z,11.26
2023-04-16T15:34:09.628Z,11.44
2023-04-16T15:36:36.484Z,11.46
2023-04-16T15:39:03.257Z,11.58
2023-04-16T15:41:31.800Z,11.55
2023-04-16T15:43:58.453Z,11.51
2023-04-16T15:46:25.163Z,11.44
2023-04-16T15:48:51.920Z,11.40
2023-04-16T15:51:18.796Z,11.48
2023-04-16T15:53:45.476Z,11.37
2023-04-16T15:56:12.170Z,11.30
2023-04-16T15:58:38.916Z,11.34
2023-04-16T16:01:05.784Z,11.36
2023-04-16T16:03:33.894Z,11.40
2023-04-16T16:06:01.629Z,11.31
2023-04-16T16:08:29.449Z,11.33
2023-04-16T16:10:56.542Z,11.37
2023-04-16T16:13:23.387Z,11.37
2023-04-16T16:15:50.925Z,11.32
2023-04-16T16:18:17.747Z,11.41
2023-04-16T16:20:44.537Z,11.37
2023-04-16T16:23:11.504Z,11.33
2023-04-16T16:25:38.306Z,11.33
2023-04-16T16:28:06.624Z,11.41
2023-04-16T16:30:33.803Z,11.38
2023-04-16T16:33:00.783Z,11.29
2023-04-16T16:35:27.461Z,11.34
2023-04-16T16:37:57.128Z,11.33
2023-04-16T16:40:23.919Z,11.30
2023-04-16T16:42:50.659Z,11.26
2023-04-16T16:45:17.447Z,11.25
2023-04-16T16:47:44.135Z,11.26
2023-04-16T16:50:11.674Z,11.28
2023-04-16T16:52:38.916Z,11.20
2023-04-16T16:55:08.573Z,11.27
2023-04-16T16:57:35.431Z,11.22
2023-04-16T17:00:02.288Z,11.24
2023-04-16T17:02:31.406Z,11.32
2023-04-16T17:04:59.033Z,11.19
2023-04-16T17:07:25.771Z,11.24
2023-04-16T17:09:52.385Z,11.18
2023-04-16T17:12:19.000Z,11.23
2023-04-16T17:14:49.911Z,11.20
2023-04-16T17:17:16.634Z,11.21
2023-04-16T17:19:44.031Z,11.27
2023-04-16T17:22:10.800Z,11.33
2023-04-16T17:24:37.451Z,11.23
2023-04-16T17:27:04.350Z,11.19
2023-04-16T17:29:31.381Z,11.26
2023-04-16T17:31:58.072Z,11.17
2023-04-16T17:34:24.874Z,11.28
2023-04-16T17:36:51.531Z,11.14
2023-04-16T17:39:18.809Z,11.15
2023-04-16T17:41:45.641Z,11.09
2023-04-16T17:44:12.501Z,11.24
2023-04-16T17:46:39.552Z,11.20
2023-04-16T17:49:06.430Z,11.21
2023-04-16T17:51:33.135Z,11.18
2023-04-16T17:53:59.803Z,11.23
2023-04-16T17:56:27.156Z,11.26
2023-04-16T17:58:53.858Z,11.25
2023-04-16T18:01:20.573Z,11.26
2023-04-16T18:03:47.449Z,11.13
2023-04-16T18:06:14.430Z,11.17
2023-04-16T18:08:41.103Z,11.15
2023-04-16T18:11:08.421Z,11.22
2023-04-16T18:13:35.604Z,11.10
2023-04-16T18:16:02.865Z,11.15
2023-04-16T18:18:29.692Z,11.16
2023-04-16T18:20:56.292Z,11.19
2023-04-16T18:23:23.042Z,11.25
2023-04-16T18:25:49.725Z,11.09
2023-04-16T18:28:17.508Z,11.19
2023-04-16T18:30:44.363Z,11.16
2023-04-16T18:33:42.784Z,11.12
2023-04-16T18:36:02.178Z,11.09
2023-04-16T18:38:31.215Z,11.11
2023-04-16T18:40:58.448Z,11.17
2023-04-16T18:43:25.340Z,11.17
2023-04-16T18:45:52.067Z,11.11
2023-04-16T18:48:18.745Z,11.11
2023-04-16T18:50:45.553Z,11.17
2023-04-16T18:53:12.443Z,11.14
2023-04-16T18:55:39.163Z,11.04
2023-04-16T18:58:05.839Z,10.99
2023-04-16T19:00:32.637Z,11.03
2023-04-16T19:02:59.439Z,11.02
2023-04-16T19:05:26.377Z,10.96
2023-04-16T19:07:53.152Z,11.02
2023-04-16T19:10:19.983Z,10.93
2023-04-16T19:12:46.650Z,10.81
2023-04-16T19:15:14.587Z,10.92
2023-04-16T19:17:41.311Z,11.00
2023-04-16T19:20:11.154Z,10.99
2023-04-16T19:22:38.341Z,11.02
2023-04-16T19:25:05.966Z,10.95
2023-04-16T19:27:32.730Z,10.92
2023-04-16T19:29:59.729Z,10.98
2023-04-16T19:32:26.557Z,10.99
2023-04-16T19:34:53.202Z,10.94
2023-04-16T19:37:19.878Z,10.90
2023-04-16T19:39:46.616Z,10.95
2023-04-16T19:42:13.337Z,10.93
2023-04-16T19:44:39.930Z,10.95
2023-04-16T19:47:06.652Z,10.92
2023-04-16T19:49:34.549Z,10.86
2023-04-16T19:52:01.549Z,10.97
2023-04-16T19:54:28.844Z,11.02
2023-04-16T19:56:55.529Z,10.94
2023-04-16T19:59:22.297Z,10.97
2023-04-16T20:01:48.919Z,10.89
2023-04-16T20:04:15.836Z,10.87
2023-04-16T20:06:42.486Z,10.79
2023-04-16T20:09:09.222Z,10.86
2023-04-16T20:11:36.024Z,10.88
2023-04-16T20:14:02.763Z,10.84
2023-04-16T20:16:30.009Z,10.76
2023-04-16T20:18:56.831Z,10.85
2023-04-16T20:21:23.664Z,10.91
2023-04-16T20:23:50.510Z,10.93
2023-04-16T20:26:18.403Z,10.90
2023-04-16T20:28:45.597Z,10.84
2023-04-16T20:31:12.888Z,10.89
2023-04-16T20:33:39.733Z,10.88
2023-04-16T20:36:07.088Z,10.87
2023-04-16T20:38:35.384Z,10.76
2023-04-16T20:41:12.347Z,10.74
2023-04-16T20:43:44.012Z,10.73
2023-04-16T20:46:12.023Z,10.76
2023-04-16T20:48:38.998Z,10.77
2023-04-16T20:51:07.872Z,10.76
2023-04-16T20:53:36.866Z,10.70
2023-04-16T20:56:03.680Z,10.64
2023-04-16T20:58:30.558Z,10.65
2023-04-16T21:00:57.496Z,10.57
2023-04-16T21:03:24.543Z,10.74
2023-04-16T21:05:55.790Z,10.73
2023-04-16T21:08:23.242Z,10.72
2023-04-16T21:10:50.858Z,10.76
2023-04-16T21:13:18.612Z,10.67
2023-04-16T21:15:45.899Z,10.64
2023-04-16T21:18:12.951Z,10.73
2023-04-16T21:20:39.892Z,10.72
2023-04-16T21:23:06.679Z,10.69
2023-04-16T21:25:33.526Z,10.61
2023-04-16T21:28:00.460Z,10.64
2023-04-16T21:30:27.452Z,10.69
2023-04-16T21:32:54.837Z,10.59
2023-04-16T21:35:21.802Z,10.72
2023-04-16T21:37:48.472Z,10.67
2023-04-16T21:40:15.247Z,10.62
2023-04-16T21:42:42.455Z,10.50
2023-04-16T21:45:10.365Z,10.63
2023-04-16T21:47:37.905Z,10.63
2023-04-16T21:50:05.048Z,10.64
2023-04-16T21:52:32.878Z,10.72
2023-04-16T21:55:00.314Z,10.67
2023-04-16T21:57:27.089Z,10.61
2023-04-16T21:59:53.791Z,10.57
2023-04-16T22:02:21.114Z,10.61
2023-04-16T22:04:48.588Z,10.57
2023-04-16T22:07:16.708Z,10.67
2023-04-16T22:09:43.694Z,10.64
2023-04-16T22:12:10.481Z,10.63
2023-04-16T22:14:44.088Z,10.58
2023-04-16T22:17:17.128Z,10.63
2023-04-16T22:19:44.565Z,10.73
2023-04-16T22:22:11.352Z,10.58
2023-04-16T22:24:37.988Z,10.63
2023-04-16T22:27:04.687Z,10.65
2023-04-16T22:29:31.380Z,10.63
2023-04-16T22:31:58.073Z,10.65
2023-04-16T22:34:24.860Z,10.46
2023-04-16T22:36:51.611Z,10.50
2023-04-16T22:39:18.729Z,10.49
2023-04-16T22:41:45.504Z,10.60
2023-04-16T22:44:12.133Z,10.63
2023-04-16T22:46:38.929Z,10.48
2023-04-16T22:49:05.676Z,10.57
2023-04-16T22:51:32.394Z,10.56
2023-04-16T22:53:59.117Z,10.47
2023-04-16T22:56:28.723Z,10.35
2023-04-16T22:58:55.499Z,10.47
2023-04-16T23:01:22.851Z,10.45
2023-04-16T23:03:49.638Z,10.39
2023-04-16T23:06:16.372Z,10.38
2023-04-16T23:08:43.184Z,10.33
2023-04-16T23:11:09.853Z,10.30
2023-04-16T23:13:37.279Z,10.33
2023-04-16T23:16:04.161Z,10.33
2023-04-16T23:18:31.219Z,10.29
2023-04-16T23:20:57.913Z,10.15
2023-04-16T23:23:24.569Z,10.23
2023-04-16T23:25:54.536Z,10.36
2023-04-16T23:28:22.066Z,10.30
2023-04-16T23:30:52.812Z,10.16
2023-04-16T23:33:19.623Z,10.17
2023-04-16T23:35:47.296Z,10.16
2023-04-16T23:38:14.191Z,10.31
2023-04-16T23:40:41.864Z,10.39
2023-04-16T23:43:08.623Z,10.30
2023-04-16T23:45:35.476Z,10.32
2023-04-16T23:48:02.408Z,10.30
2023-04-16T23:50:29.136Z,10.29
2023-04-16T23:52:55.866Z,10.26
2023-04-16T23:55:22.734Z,10.23
2023-04-16T23:57:49.568Z,10.21
